SAS777 MMMX-MMPR
Flight info
| Callsign | SAS777 |
|---|---|
| Flight time | 1h 0m |
| Altitude | 33000 |
| Route | SEBON3A SEBON UT124 GDL UJ14N NOTUP NOTUP1B |
| Aircraft | A339/M-V/N |
Departure
| Time | 2026-04-17 04:08 |
|---|---|
| Airport | Mexico City Benito Juárez International Airport (MMMX) |
Arrival
| Time | 2026-04-17 05:09 |
|---|---|
| Airport | Puerto Vallarta International Airport (MMPR) |
| Time | Latitude | Longitude | Altitude | Speed | Heading |
|---|---|---|---|---|---|
| 2026-04-17 03:26 | 19.43112 | -99.08810 | 7309 ft | 0 kts | 122° |
| 2026-04-17 03:55 | 19.43113 | -99.08812 | 7309 ft | 0 kts | 122° |
| 2026-04-17 03:57 | 19.43119 | -99.08824 | 7309 ft | 4 kts | 135° |
| 2026-04-17 03:58 | 19.43131 | -99.08839 | 7310 ft | 4 kts | 186° |
| 2026-04-17 03:58 | 19.43150 | -99.08833 | 7310 ft | 4 kts | 221° |
| 2026-04-17 03:58 | 19.43168 | -99.08816 | 7310 ft | 1 kts | 212° |
| 2026-04-17 04:01 | 19.43167 | -99.08817 | 7309 ft | 1 kts | 212° |
| 2026-04-17 04:01 | 19.43141 | -99.08834 | 7309 ft | 8 kts | 212° |
| 2026-04-17 04:02 | 19.43087 | -99.08871 | 7309 ft | 0 kts | 212° |
| 2026-04-17 04:02 | 19.43065 | -99.08886 | 7309 ft | 7 kts | 212° |
| 2026-04-17 04:02 | 19.42999 | -99.08924 | 7309 ft | 14 kts | 205° |
| 2026-04-17 04:02 | 19.42948 | -99.08961 | 7310 ft | 0 kts | 221° |
| 2026-04-17 04:03 | 19.42942 | -99.08967 | 7310 ft | 4 kts | 223° |
| 2026-04-17 04:03 | 19.42906 | -99.09000 | 7310 ft | 0 kts | 207° |
| 2026-04-17 04:03 | 19.42903 | -99.09000 | 7310 ft | 0 kts | 203° |
| 2026-04-17 04:04 | 19.42888 | -99.09007 | 7310 ft | 6 kts | 203° |
| 2026-04-17 04:04 | 19.42840 | -99.08996 | 7310 ft | 9 kts | 163° |
| 2026-04-17 04:04 | 19.42800 | -99.08956 | 7310 ft | 0 kts | 113° |
| 2026-04-17 04:05 | 19.42805 | -99.08947 | 7310 ft | 2 kts | 77° |
| 2026-04-17 04:05 | 19.42817 | -99.08933 | 7310 ft | 0 kts | 56° |
| 2026-04-17 04:05 | 19.42817 | -99.08932 | 7310 ft | 0 kts | 56° |
| 2026-04-17 04:07 | 19.42854 | -99.08873 | 7311 ft | 36 kts | 57° |
| 2026-04-17 04:07 | 19.43103 | -99.08436 | 7309 ft | 101 kts | 58° |
| 2026-04-17 04:08 | 19.43555 | -99.07635 | 7313 ft | 150 kts | 60° |
| 2026-04-17 04:08 | 19.44160 | -99.06577 | 7484 ft | 179 kts | 59° |
| 2026-04-17 04:08 | 19.44768 | -99.05485 | 8569 ft | 185 kts | 54° |
| 2026-04-17 04:08 | 19.45528 | -99.04309 | 9018 ft | 210 kts | 57° |
| 2026-04-17 04:09 | 19.46334 | -99.02851 | 9039 ft | 248 kts | 60° |
| 2026-04-17 04:09 | 19.47201 | -99.01216 | 9024 ft | 258 kts | 60° |
| 2026-04-17 04:09 | 19.48091 | -98.99568 | 9031 ft | 258 kts | 59° |
| 2026-04-17 04:09 | 19.49010 | -98.97911 | 9005 ft | 261 kts | 59° |
| 2026-04-17 04:10 | 19.49861 | -98.96212 | 8987 ft | 263 kts | 70° |
| 2026-04-17 04:10 | 19.50074 | -98.94315 | 8973 ft | 264 kts | 95° |
| 2026-04-17 04:10 | 19.49761 | -98.93034 | 8973 ft | 266 kts | 112° |
| 2026-04-17 04:10 | 19.48682 | -98.91477 | 8966 ft | 268 kts | 137° |
| 2026-04-17 04:11 | 19.47028 | -98.90562 | 8963 ft | 275 kts | 163° |
| 2026-04-17 04:11 | 19.45128 | -98.90497 | 8961 ft | 277 kts | 190° |
| 2026-04-17 04:11 | 19.43356 | -98.91337 | 8974 ft | 283 kts | 216° |
| 2026-04-17 04:11 | 19.42086 | -98.92918 | 8979 ft | 284 kts | 243° |
| 2026-04-17 04:12 | 19.41488 | -98.94898 | 9001 ft | 283 kts | 259° |
| 2026-04-17 04:12 | 19.41065 | -98.96928 | 9005 ft | 282 kts | 258° |
| 2026-04-17 04:12 | 19.40495 | -98.98926 | 9028 ft | 284 kts | 251° |
| 2026-04-17 04:12 | 19.39745 | -99.00851 | 9039 ft | 283 kts | 246° |
| 2026-04-17 04:13 | 19.38880 | -99.02721 | 9014 ft | 282 kts | 244° |
| 2026-04-17 04:13 | 19.37965 | -99.04559 | 9032 ft | 282 kts | 243° |
| 2026-04-17 04:13 | 19.37179 | -99.06485 | 9186 ft | 288 kts | 254° |
| 2026-04-17 04:13 | 19.36802 | -99.08543 | 9858 ft | 284 kts | 263° |
| 2026-04-17 04:14 | 19.36517 | -99.10668 | 10328 ft | 301 kts | 263° |
| 2026-04-17 04:14 | 19.36193 | -99.12899 | 10951 ft | 308 kts | 262° |
| 2026-04-17 04:14 | 19.35851 | -99.15180 | 11705 ft | 312 kts | 262° |
| 2026-04-17 04:14 | 19.35507 | -99.17423 | 12402 ft | 314 kts | 262° |
| 2026-04-17 04:15 | 19.35154 | -99.19722 | 13103 ft | 319 kts | 262° |
| 2026-04-17 04:15 | 19.34807 | -99.22063 | 13797 ft | 323 kts | 262° |
| 2026-04-17 04:15 | 19.34460 | -99.24424 | 14433 ft | 327 kts | 262° |
| 2026-04-17 04:15 | 19.34111 | -99.26797 | 14727 ft | 329 kts | 262° |
| 2026-04-17 04:16 | 19.33756 | -99.29200 | 14844 ft | 329 kts | 262° |
| 2026-04-17 04:16 | 19.33401 | -99.31592 | 14917 ft | 328 kts | 262° |
| 2026-04-17 04:16 | 19.33050 | -99.33968 | 14947 ft | 326 kts | 262° |
| 2026-04-17 04:16 | 19.32698 | -99.36345 | 15011 ft | 329 kts | 262° |
| 2026-04-17 04:17 | 19.32505 | -99.38732 | 15536 ft | 330 kts | 272° |
| 2026-04-17 04:17 | 19.32804 | -99.41149 | 16380 ft | 327 kts | 284° |
| 2026-04-17 04:17 | 19.33454 | -99.43454 | 16829 ft | 336 kts | 288° |
| 2026-04-17 04:17 | 19.34175 | -99.45895 | 17036 ft | 354 kts | 288° |
| 2026-04-17 04:18 | 19.34908 | -99.48422 | 17113 ft | 374 kts | 287° |
| 2026-04-17 04:18 | 19.35669 | -99.51086 | 17102 ft | 379 kts | 287° |
| 2026-04-17 04:18 | 19.36428 | -99.53766 | 17102 ft | 379 kts | 287° |
| 2026-04-17 04:18 | 19.37181 | -99.56439 | 17117 ft | 379 kts | 287° |
| 2026-04-17 04:19 | 19.37820 | -99.59147 | 17137 ft | 382 kts | 280° |
| 2026-04-17 04:19 | 19.38082 | -99.61954 | 17670 ft | 383 kts | 272° |
| 2026-04-17 04:19 | 19.37994 | -99.64773 | 18294 ft | 384 kts | 266° |
| 2026-04-17 04:19 | 19.37798 | -99.67565 | 18810 ft | 386 kts | 266° |
| 2026-04-17 04:20 | 19.37615 | -99.70401 | 19313 ft | 388 kts | 266° |
| 2026-04-17 04:20 | 19.37438 | -99.73262 | 19820 ft | 389 kts | 266° |
| 2026-04-17 04:20 | 19.37264 | -99.76129 | 20281 ft | 392 kts | 266° |
| 2026-04-17 04:20 | 19.37085 | -99.79022 | 20744 ft | 395 kts | 266° |
| 2026-04-17 04:21 | 19.36903 | -99.81934 | 21233 ft | 397 kts | 266° |
| 2026-04-17 04:21 | 19.36720 | -99.84860 | 21727 ft | 400 kts | 265° |
| 2026-04-17 04:21 | 19.36533 | -99.87843 | 22224 ft | 402 kts | 265° |
| 2026-04-17 04:21 | 19.36351 | -99.90760 | 22709 ft | 404 kts | 265° |
| 2026-04-17 04:22 | 19.36161 | -99.93747 | 22946 ft | 406 kts | 265° |
| 2026-04-17 04:22 | 19.35970 | -99.96731 | 23013 ft | 406 kts | 265° |
| 2026-04-17 04:22 | 19.35779 | -99.99721 | 23165 ft | 410 kts | 265° |
| 2026-04-17 04:22 | 19.35587 | -100.02734 | 23747 ft | 410 kts | 265° |
| 2026-04-17 04:23 | 19.35393 | -100.05749 | 24223 ft | 411 kts | 265° |
| 2026-04-17 04:23 | 19.35199 | -100.08779 | 24658 ft | 413 kts | 265° |
| 2026-04-17 04:23 | 19.35187 | -100.11831 | 25085 ft | 417 kts | 272° |
| 2026-04-17 04:23 | 19.35580 | -100.14878 | 25550 ft | 421 kts | 280° |
| 2026-04-17 04:24 | 19.36375 | -100.17882 | 26007 ft | 425 kts | 288° |
| 2026-04-17 04:24 | 19.37389 | -100.20842 | 26425 ft | 428 kts | 288° |
| 2026-04-17 04:24 | 19.38390 | -100.23817 | 26840 ft | 430 kts | 287° |
| 2026-04-17 04:24 | 19.39385 | -100.26813 | 27273 ft | 433 kts | 287° |
| 2026-04-17 04:25 | 19.40380 | -100.29827 | 27704 ft | 435 kts | 287° |
| 2026-04-17 04:25 | 19.41380 | -100.32864 | 28119 ft | 438 kts | 287° |
| 2026-04-17 04:25 | 19.42387 | -100.35919 | 28544 ft | 440 kts | 287° |
| 2026-04-17 04:25 | 19.43399 | -100.38995 | 28974 ft | 443 kts | 287° |
| 2026-04-17 04:26 | 19.44413 | -100.42078 | 29386 ft | 445 kts | 287° |
| 2026-04-17 04:26 | 19.45436 | -100.45188 | 29809 ft | 448 kts | 287° |
| 2026-04-17 04:26 | 19.46465 | -100.48317 | 30195 ft | 451 kts | 287° |
| 2026-04-17 04:26 | 19.47497 | -100.51459 | 30575 ft | 454 kts | 286° |
| 2026-04-17 04:27 | 19.48535 | -100.54617 | 31025 ft | 455 kts | 286° |
| 2026-04-17 04:27 | 19.49578 | -100.57794 | 31437 ft | 457 kts | 286° |
| 2026-04-17 04:27 | 19.50623 | -100.60982 | 31772 ft | 458 kts | 286° |
| 2026-04-17 04:28 | 19.52712 | -100.67364 | 31875 ft | 459 kts | 286° |
| 2026-04-17 04:28 | 19.54803 | -100.73758 | 31875 ft | 459 kts | 286° |
| 2026-04-17 04:29 | 19.56947 | -100.80084 | 31882 ft | 459 kts | 287° |
| 2026-04-17 04:29 | 19.59136 | -100.86460 | 31941 ft | 460 kts | 287° |
| 2026-04-17 04:30 | 19.61306 | -100.92821 | 32002 ft | 458 kts | 287° |
| 2026-04-17 04:30 | 19.63469 | -100.99186 | 32049 ft | 460 kts | 286° |
| 2026-04-17 04:31 | 19.65632 | -101.05567 | 32078 ft | 460 kts | 286° |
| 2026-04-17 04:31 | 19.67796 | -101.11954 | 32080 ft | 460 kts | 286° |
| 2026-04-17 04:32 | 19.69943 | -101.18297 | 32059 ft | 459 kts | 286° |
| 2026-04-17 04:32 | 19.72100 | -101.24678 | 32021 ft | 459 kts | 286° |
| 2026-04-17 04:33 | 19.74256 | -101.31066 | 31950 ft | 460 kts | 286° |
| 2026-04-17 04:33 | 19.76381 | -101.37367 | 31915 ft | 452 kts | 286° |
| 2026-04-17 04:34 | 19.79554 | -101.46801 | 31893 ft | 452 kts | 286° |
| 2026-04-17 04:34 | 19.81659 | -101.53066 | 31889 ft | 452 kts | 286° |
| 2026-04-17 04:35 | 19.83766 | -101.59346 | 31888 ft | 452 kts | 286° |
| 2026-04-17 04:35 | 19.85873 | -101.65629 | 31887 ft | 452 kts | 286° |
| 2026-04-17 04:36 | 19.87978 | -101.71915 | 31887 ft | 451 kts | 286° |
| 2026-04-17 04:36 | 19.90075 | -101.78192 | 31883 ft | 451 kts | 286° |
| 2026-04-17 04:37 | 19.92174 | -101.84475 | 31878 ft | 451 kts | 286° |
| 2026-04-17 04:37 | 19.94267 | -101.90753 | 31872 ft | 451 kts | 286° |
| 2026-04-17 04:38 | 19.96347 | -101.97001 | 31869 ft | 451 kts | 285° |
| 2026-04-17 04:38 | 19.98436 | -102.03281 | 31864 ft | 450 kts | 285° |
| 2026-04-17 04:39 | 20.00518 | -102.09552 | 31861 ft | 451 kts | 285° |
| 2026-04-17 04:39 | 20.02607 | -102.15846 | 31862 ft | 450 kts | 285° |
| 2026-04-17 04:40 | 20.04687 | -102.22126 | 31858 ft | 450 kts | 285° |
| 2026-04-17 04:40 | 20.06766 | -102.28413 | 31853 ft | 450 kts | 285° |
| 2026-04-17 04:41 | 20.08836 | -102.34681 | 31847 ft | 450 kts | 285° |
| 2026-04-17 04:41 | 20.10895 | -102.40920 | 31842 ft | 449 kts | 285° |
| 2026-04-17 04:42 | 20.12963 | -102.47189 | 31844 ft | 449 kts | 285° |
| 2026-04-17 04:42 | 20.15027 | -102.53465 | 31842 ft | 449 kts | 285° |
| 2026-04-17 04:43 | 20.17086 | -102.59738 | 31837 ft | 449 kts | 285° |
| 2026-04-17 04:43 | 20.19127 | -102.65954 | 31838 ft | 448 kts | 285° |
| 2026-04-17 04:44 | 20.21704 | -102.72079 | 31836 ft | 454 kts | 295° |
| 2026-04-17 04:44 | 20.24767 | -102.77899 | 31838 ft | 453 kts | 295° |
| 2026-04-17 04:45 | 20.27822 | -102.83773 | 31842 ft | 453 kts | 294° |
| 2026-04-17 04:45 | 20.30869 | -102.89642 | 31832 ft | 453 kts | 294° |
| 2026-04-17 04:46 | 20.33912 | -102.95505 | 31848 ft | 452 kts | 294° |
| 2026-04-17 04:46 | 20.36952 | -103.01372 | 31881 ft | 451 kts | 294° |
| 2026-04-17 04:47 | 20.39978 | -103.07213 | 31960 ft | 453 kts | 294° |
| 2026-04-17 04:47 | 20.43023 | -103.13097 | 32030 ft | 453 kts | 294° |
| 2026-04-17 04:48 | 20.46067 | -103.18988 | 32104 ft | 454 kts | 294° |
| 2026-04-17 04:48 | 20.49111 | -103.24884 | 32146 ft | 454 kts | 294° |
| 2026-04-17 04:49 | 20.52116 | -103.30796 | 32145 ft | 452 kts | 291° |
| 2026-04-17 04:49 | 20.54419 | -103.37004 | 32147 ft | 450 kts | 286° |
| 2026-04-17 04:50 | 20.56627 | -103.43246 | 32111 ft | 450 kts | 287° |
| 2026-04-17 04:50 | 20.58827 | -103.49454 | 32050 ft | 450 kts | 287° |
| 2026-04-17 04:51 | 20.61033 | -103.55694 | 31987 ft | 450 kts | 287° |
| 2026-04-17 04:51 | 20.63236 | -103.61939 | 31930 ft | 449 kts | 286° |
| 2026-04-17 04:52 | 20.65437 | -103.68182 | 31883 ft | 449 kts | 286° |
| 2026-04-17 04:52 | 20.67632 | -103.74420 | 31889 ft | 449 kts | 286° |
| 2026-04-17 04:53 | 20.69825 | -103.80662 | 31900 ft | 449 kts | 286° |
| 2026-04-17 04:55 | 20.78564 | -104.05608 | 31936 ft | 448 kts | 286° |
| 2026-04-17 04:55 | 20.80727 | -104.11803 | 31946 ft | 448 kts | 286° |
| 2026-04-17 04:56 | 20.82893 | -104.18011 | 31432 ft | 443 kts | 286° |
| 2026-04-17 04:56 | 20.83936 | -104.21104 | 30727 ft | 440 kts | 283° |
| 2026-04-17 04:56 | 20.84591 | -104.24271 | 30050 ft | 434 kts | 275° |
| 2026-04-17 04:57 | 20.84769 | -104.27464 | 29217 ft | 428 kts | 266° |
| 2026-04-17 04:57 | 20.84495 | -104.30605 | 28448 ft | 421 kts | 258° |
| 2026-04-17 04:57 | 20.83970 | -104.33667 | 27669 ft | 417 kts | 258° |
| 2026-04-17 04:57 | 20.83466 | -104.36711 | 26905 ft | 414 kts | 258° |
| 2026-04-17 04:58 | 20.82975 | -104.39741 | 26172 ft | 412 kts | 258° |
| 2026-04-17 04:58 | 20.82523 | -104.42747 | 25421 ft | 409 kts | 261° |
| 2026-04-17 04:58 | 20.82345 | -104.45738 | 24708 ft | 408 kts | 268° |
| 2026-04-17 04:58 | 20.82485 | -104.48756 | 23996 ft | 407 kts | 274° |
| 2026-04-17 04:59 | 20.82836 | -104.51752 | 23229 ft | 405 kts | 275° |
| 2026-04-17 04:59 | 20.83176 | -104.54730 | 22406 ft | 401 kts | 275° |
| 2026-04-17 04:59 | 20.83502 | -104.57677 | 21600 ft | 398 kts | 275° |
| 2026-04-17 04:59 | 20.83819 | -104.60604 | 20815 ft | 395 kts | 275° |
| 2026-04-17 05:00 | 20.84132 | -104.63506 | 20032 ft | 392 kts | 275° |
| 2026-04-17 05:00 | 20.84445 | -104.66385 | 19263 ft | 389 kts | 275° |
| 2026-04-17 05:00 | 20.84755 | -104.69246 | 18685 ft | 382 kts | 276° |
| 2026-04-17 05:00 | 20.85053 | -104.71997 | 18500 ft | 363 kts | 275° |
| 2026-04-17 05:01 | 20.85334 | -104.74607 | 18341 ft | 345 kts | 275° |
| 2026-04-17 05:01 | 20.85602 | -104.77083 | 18202 ft | 328 kts | 275° |
| 2026-04-17 05:01 | 20.85856 | -104.79438 | 17828 ft | 319 kts | 275° |
| 2026-04-17 05:01 | 20.86110 | -104.81788 | 17134 ft | 320 kts | 275° |
| 2026-04-17 05:02 | 20.86362 | -104.84186 | 16119 ft | 331 kts | 275° |
| 2026-04-17 05:02 | 20.86627 | -104.86690 | 14889 ft | 348 kts | 275° |
| 2026-04-17 05:02 | 20.86909 | -104.89308 | 13659 ft | 356 kts | 276° |
| 2026-04-17 05:02 | 20.87192 | -104.91939 | 12342 ft | 357 kts | 276° |
| 2026-04-17 05:03 | 20.87475 | -104.94578 | 11134 ft | 356 kts | 276° |
| 2026-04-17 05:03 | 20.87752 | -104.97191 | 9890 ft | 352 kts | 276° |
| 2026-04-17 05:03 | 20.87967 | -104.99791 | 8407 ft | 349 kts | 270° |
| 2026-04-17 05:03 | 20.87536 | -105.02322 | 7098 ft | 349 kts | 250° |
| 2026-04-17 05:04 | 20.86304 | -105.04500 | 6226 ft | 335 kts | 230° |
| 2026-04-17 05:04 | 20.84744 | -105.06234 | 5591 ft | 313 kts | 227° |
| 2026-04-17 05:04 | 20.83310 | -105.07834 | 5284 ft | 283 kts | 227° |
| 2026-04-17 05:04 | 20.82042 | -105.09269 | 5046 ft | 256 kts | 228° |
| 2026-04-17 05:05 | 20.80861 | -105.10622 | 4593 ft | 244 kts | 228° |
| 2026-04-17 05:05 | 20.79718 | -105.11940 | 3945 ft | 241 kts | 228° |
| 2026-04-17 05:05 | 20.78603 | -105.13231 | 3389 ft | 235 kts | 228° |
| 2026-04-17 05:05 | 20.77508 | -105.14501 | 2989 ft | 226 kts | 228° |
| 2026-04-17 05:06 | 20.76486 | -105.15678 | 2846 ft | 204 kts | 228° |
| 2026-04-17 05:06 | 20.75589 | -105.16706 | 2749 ft | 176 kts | 228° |
| 2026-04-17 05:06 | 20.74797 | -105.17611 | 2529 ft | 160 kts | 228° |
| 2026-04-17 05:06 | 20.73977 | -105.18555 | 1699 ft | 181 kts | 227° |
| 2026-04-17 05:07 | 20.73126 | -105.19531 | 1109 ft | 178 kts | 227° |
| 2026-04-17 05:07 | 20.72295 | -105.20477 | 830 ft | 164 kts | 227° |
| 2026-04-17 05:07 | 20.71558 | -105.21320 | 801 ft | 156 kts | 227° |
| 2026-04-17 05:07 | 20.70828 | -105.22160 | 782 ft | 154 kts | 227° |
| 2026-04-17 05:08 | 20.70088 | -105.23019 | 403 ft | 155 kts | 227° |
| 2026-04-17 05:08 | 20.69378 | -105.23858 | 208 ft | 158 kts | 227° |
| 2026-04-17 05:08 | 20.68642 | -105.24694 | 36 ft | 144 kts | 227° |
| 2026-04-17 05:08 | 20.68100 | -105.25312 | 33 ft | 86 kts | 227° |
| 2026-04-17 05:09 | 20.67799 | -105.25618 | 31 ft | 19 kts | 191° |
| 2026-04-17 05:09 | 20.67712 | -105.25641 | 30 ft | 14 kts | 197° |
| 2026-04-17 05:09 | 20.67644 | -105.25658 | 30 ft | 8 kts | 178° |
| 2026-04-17 05:09 | 20.67618 | -105.25624 | 30 ft | 4 kts | 97° |
| 2026-04-17 05:10 | 20.67636 | -105.25595 | 30 ft | 5 kts | 53° |
| 2026-04-17 05:10 | 20.67666 | -105.25555 | 31 ft | 8 kts | 52° |
| 2026-04-17 05:10 | 20.67712 | -105.25503 | 31 ft | 11 kts | 45° |
| 2026-04-17 05:10 | 20.67770 | -105.25440 | 31 ft | 13 kts | 47° |
| 2026-04-17 05:11 | 20.67837 | -105.25362 | 32 ft | 15 kts | 47° |
| 2026-04-17 05:11 | 20.67912 | -105.25274 | 32 ft | 17 kts | 47° |
| 2026-04-17 05:11 | 20.67997 | -105.25176 | 33 ft | 19 kts | 47° |
| 2026-04-17 05:11 | 20.68090 | -105.25072 | 33 ft | 20 kts | 47° |
| 2026-04-17 05:12 | 20.68189 | -105.24959 | 33 ft | 21 kts | 46° |
| 2026-04-17 05:12 | 20.68287 | -105.24837 | 34 ft | 22 kts | 61° |
| 2026-04-17 05:12 | 20.68279 | -105.24786 | 34 ft | 6 kts | 120° |
| 2026-04-17 05:12 | 20.68248 | -105.24747 | 34 ft | 9 kts | 133° |
| 2026-04-17 05:13 | 20.68200 | -105.24692 | 33 ft | 11 kts | 125° |
| 2026-04-17 05:13 | 20.68148 | -105.24620 | 34 ft | 13 kts | 133° |
| 2026-04-17 05:13 | 20.68134 | -105.24610 | 34 ft | 3 kts | 143° |
| 2026-04-17 05:13 | 20.68105 | -105.24604 | 34 ft | 5 kts | 181° |
| 2026-04-17 05:14 | 20.68069 | -105.24629 | 34 ft | 8 kts | 220° |
| 2026-04-17 05:14 | 20.68055 | -105.24648 | 32 ft | 0 kts | 226° |
| 2026-04-17 05:14 | 20.68052 | -105.24650 | 33 ft | 0 kts | 226° |